createdAt,value
2019-01-10T00:00:28.160Z,4.27
2019-01-10T00:02:57.377Z,4.00
2019-01-10T00:05:26.888Z,4.60
2019-01-10T00:07:57.080Z,4.40
2019-01-10T00:10:27.705Z,3.73
2019-01-10T00:12:57.318Z,4.40
2019-01-10T00:15:27.633Z,4.53
2019-01-10T00:17:58.925Z,4.03
2019-01-10T00:20:28.152Z,4.67
2019-01-10T00:22:57.402Z,4.47
2019-01-10T00:25:29.345Z,4.00
2019-01-10T00:28:00.136Z,3.97
2019-01-10T00:30:29.365Z,3.60
2019-01-10T00:32:58.601Z,4.70
2019-01-10T00:35:33.636Z,4.60
2019-01-10T00:38:07.402Z,4.53
2019-01-10T00:40:38.676Z,4.10
2019-01-10T00:43:10.868Z,4.70
2019-01-10T00:45:43.436Z,4.40
2019-01-10T00:48:14.506Z,4.57
2019-01-10T00:50:46.369Z,4.93
2019-01-10T00:53:21.206Z,4.13
2019-01-10T00:55:50.658Z,4.30
2019-01-10T00:58:22.246Z,4.33
2019-01-10T01:00:54.075Z,4.17
2019-01-10T01:03:25.048Z,3.90
2019-01-10T01:05:56.297Z,4.10
2019-01-10T01:08:29.284Z,4.03
2019-01-10T01:11:04.670Z,4.00
2019-01-10T01:13:35.844Z,3.80
2019-01-10T01:16:10.508Z,3.83
2019-01-10T01:18:40.714Z,4.03
2019-01-10T01:21:13.143Z,3.73
2019-01-10T01:23:43.516Z,4.37
2019-01-10T01:26:22.902Z,4.27
2019-01-10T01:28:56.343Z,3.70
2019-01-10T01:31:25.930Z,3.30
2019-01-10T01:33:55.767Z,3.53
2019-01-10T01:36:26.148Z,3.97
2019-01-10T01:38:57.085Z,3.70
2019-01-10T01:41:26.296Z,3.83
2019-01-10T01:43:59.413Z,4.03
2019-01-10T01:46:30.332Z,3.63
2019-01-10T01:49:00.702Z,3.77
2019-01-10T01:51:30.499Z,4.20
2019-01-10T01:54:01.019Z,3.70
2019-01-10T01:56:30.527Z,3.90
2019-01-10T01:59:03.197Z,3.60
2019-01-10T02:01:33.023Z,3.70
2019-01-10T02:04:02.847Z,3.70
2019-01-10T02:06:39.644Z,3.80
2019-01-10T02:09:13.875Z,3.93
2019-01-10T02:11:45.914Z,5.13
2019-01-10T02:14:17.404Z,3.93
2019-01-10T02:16:48.311Z,4.50
2019-01-10T02:19:19.486Z,4.60
2019-01-10T02:21:51.484Z,4.67
2019-01-10T02:24:23.137Z,4.80
2019-01-10T02:26:55.016Z,4.80
2019-01-10T02:29:26.175Z,4.53
2019-01-10T02:31:58.462Z,4.90
2019-01-10T02:34:27.925Z,4.17
2019-01-10T02:36:58.134Z,4.40
2019-01-10T02:39:27.754Z,3.97
2019-01-10T02:42:00.405Z,4.43
2019-01-10T02:44:33.058Z,4.67
2019-01-10T02:47:02.589Z,4.67
2019-01-10T02:49:31.852Z,4.30
2019-01-10T02:52:05.772Z,5.17
2019-01-10T02:54:35.845Z,4.47
2019-01-10T02:57:06.702Z,5.10
2019-01-10T02:59:36.942Z,4.50
2019-01-10T03:02:08.661Z,5.17
2019-01-10T03:04:39.809Z,4.57
2019-01-10T03:07:09.065Z,5.40
2019-01-10T03:09:40.198Z,5.47
2019-01-10T03:12:14.303Z,5.40
2019-01-10T03:14:43.578Z,5.53
2019-01-10T03:17:13.708Z,5.40
2019-01-10T03:19:43.231Z,4.87
2019-01-10T03:22:12.568Z,4.77
2019-01-10T03:24:42.685Z,5.57
2019-01-10T03:27:16.054Z,5.77
2019-01-10T03:29:48.136Z,5.40
2019-01-10T03:32:19.720Z,5.40
2019-01-10T03:34:52.982Z,4.77
2019-01-10T03:37:22.400Z,5.30
2019-01-10T03:39:51.949Z,5.40
2019-01-10T03:42:22.318Z,5.30
2019-01-10T03:44:53.022Z,5.53
2019-01-10T03:47:23.457Z,5.37
2019-01-10T03:49:54.758Z,5.03
2019-01-10T03:52:24.026Z,5.17
2019-01-10T03:54:55.332Z,5.70
2019-01-10T03:57:26.364Z,5.57
2019-01-10T03:59:55.857Z,5.27
2019-01-10T04:02:26.468Z,5.97
2019-01-10T04:04:59.916Z,5.57
2019-01-10T04:07:29.655Z,5.50
2019-01-10T04:09:59.168Z,5.57
2019-01-10T04:12:28.715Z,5.67
2019-01-10T04:15:00.009Z,5.53
2019-01-10T04:17:29.885Z,5.50
2019-01-10T04:19:59.642Z,5.37
2019-01-10T04:22:31.897Z,6.00
2019-01-10T04:25:03.547Z,5.50
2019-01-10T04:27:33.673Z,5.40
2019-01-10T04:30:03.697Z,5.43
2019-01-10T04:32:40.799Z,5.43
2019-01-10T04:35:11.122Z,5.57
2019-01-10T04:37:40.404Z,5.73
2019-01-10T04:40:12.710Z,5.77
2019-01-10T04:42:42.883Z,5.83
2019-01-10T04:45:15.996Z,5.83
2019-01-10T04:47:46.540Z,5.83
2019-01-10T04:50:17.527Z,5.93
2019-01-10T04:52:47.930Z,6.10
2019-01-10T04:55:18.519Z,5.07
2019-01-10T04:57:48.255Z,5.87
2019-01-10T05:00:22.035Z,5.30
2019-01-10T05:02:54.085Z,5.30
2019-01-10T05:05:25.749Z,5.03
2019-01-10T05:07:55.314Z,5.77
2019-01-10T05:10:24.544Z,5.10
2019-01-10T05:12:53.848Z,4.97
2019-01-10T05:15:24.445Z,5.40
2019-01-10T05:17:54.512Z,5.03
2019-01-10T05:20:25.373Z,5.60
2019-01-10T05:22:56.221Z,4.77
2019-01-10T05:25:25.778Z,5.03
2019-01-10T05:27:55.334Z,4.93
2019-01-10T05:30:27.857Z,5.30
2019-01-10T05:32:58.826Z,5.30
2019-01-10T05:35:30.689Z,4.90
2019-01-10T05:38:00.216Z,4.33
2019-01-10T05:40:30.279Z,4.90
2019-01-10T05:42:59.523Z,4.90
2019-01-10T05:45:31.834Z,4.40
2019-01-10T05:48:03.530Z,4.43
2019-01-10T05:50:33.081Z,4.83
2019-01-10T05:53:02.360Z,4.70
2019-01-10T05:55:31.906Z,4.67
2019-01-10T05:58:01.944Z,4.80
2019-01-10T06:00:31.523Z,4.70
2019-01-10T06:03:04.013Z,4.80
2019-01-10T06:05:33.950Z,5.13
2019-01-10T06:08:03.503Z,4.27
2019-01-10T06:10:33.534Z,4.53
2019-01-10T06:13:03.322Z,4.73
2019-01-10T06:15:37.681Z,4.70
2019-01-10T06:18:08.416Z,4.47
2019-01-10T06:20:52.435Z,4.50
2019-01-10T06:23:27.575Z,4.67
2019-01-10T06:25:59.604Z,4.47
2019-01-10T06:28:30.939Z,4.87
2019-01-10T06:31:01.625Z,3.90
2019-01-10T06:33:35.476Z,3.80
2019-01-10T06:36:12.512Z,3.43
2019-01-10T06:38:46.522Z,3.20
2019-01-10T06:41:20.637Z,2.97
2019-01-10T06:43:49.944Z,3.60
2019-01-10T06:46:21.287Z,3.70
2019-01-10T06:48:50.912Z,3.50
2019-01-10T06:51:20.165Z,3.83
2019-01-10T06:53:50.246Z,3.80
2019-01-10T06:56:19.630Z,3.60
2019-01-10T06:58:49.692Z,3.43
2019-01-10T07:01:19.719Z,4.17
2019-01-10T07:04:00.320Z,3.80
2019-01-10T07:06:31.324Z,3.67
2019-01-10T07:09:01.014Z,4.10
2019-01-10T07:11:30.360Z,4.33
2019-01-10T07:14:08.710Z,3.30
2019-01-10T07:16:39.055Z,3.70
2019-01-10T07:19:08.433Z,4.40
2019-01-10T07:21:56.767Z,4.40
2019-01-10T07:24:27.056Z,4.87
2019-01-10T07:27:01.990Z,4.27
2019-01-10T07:29:31.636Z,5.47
2019-01-10T07:32:01.626Z,4.50
2019-01-10T07:34:31.295Z,4.23
2019-01-10T07:37:12.402Z,4.53
2019-01-10T07:39:38.247Z,4.70
2019-01-10T07:42:08.932Z,4.20
2019-01-10T07:44:40.320Z,4.90
2019-01-10T07:47:13.931Z,4.30
2019-01-10T07:49:47.127Z,4.67
2019-01-10T07:52:18.912Z,4.30
2019-01-10T07:54:50.590Z,4.23
2019-01-10T07:57:23.057Z,4.63
2019-01-10T07:59:52.589Z,4.70
2019-01-10T08:02:27.590Z,7.00
2019-01-10T08:04:58.229Z,6.60
2019-01-10T08:07:27.480Z,5.30
2019-01-10T08:09:57.284Z,4.50
2019-01-10T08:12:27.837Z,4.80
2019-01-10T08:15:11.575Z,4.30
2019-01-10T08:17:35.462Z,4.00
2019-01-10T08:20:06.552Z,5.00
2019-01-10T08:22:36.659Z,4.10
2019-01-10T08:25:07.033Z,5.00
2019-01-10T08:27:36.609Z,4.07
2019-01-10T08:30:10.067Z,4.30
2019-01-10T08:32:41.546Z,3.80
2019-01-10T08:35:16.488Z,3.97
2019-01-10T08:37:46.177Z,5.57
2019-01-10T08:40:16.069Z,4.40
2019-01-10T08:42:45.328Z,4.60
2019-01-10T08:45:21.325Z,4.20
2019-01-10T08:47:47.519Z,4.37
2019-01-10T08:50:24.311Z,4.83
2019-01-10T08:52:54.178Z,4.83
2019-01-10T08:55:25.308Z,4.90
2019-01-10T08:58:03.415Z,3.70
2019-01-10T09:00:34.354Z,4.30
2019-01-10T09:03:04.228Z,3.80
2019-01-10T09:05:35.477Z,3.50
2019-01-10T09:08:07.123Z,3.90
2019-01-10T09:10:36.568Z,4.17
2019-01-10T09:13:06.592Z,3.70
2019-01-10T09:15:35.985Z,3.93
2019-01-10T09:18:07.260Z,5.30
2019-01-10T09:20:41.290Z,4.93
2019-01-10T09:23:16.134Z,4.20
2019-01-10T09:25:48.556Z,3.87
2019-01-10T09:28:18.152Z,3.50
2019-01-10T09:30:48.647Z,3.90
2019-01-10T09:33:20.650Z,4.00
2019-01-10T09:35:53.650Z,4.00
2019-01-10T09:38:36.648Z,3.97
2019-01-10T09:41:14.843Z,4.40
2019-01-10T09:43:44.164Z,4.43
2019-01-10T09:46:25.370Z,4.37
2019-01-10T09:48:57.931Z,4.53
2019-01-10T09:51:29.086Z,4.40
2019-01-10T09:54:00.934Z,4.40
2019-01-10T09:56:31.402Z,3.90
2019-01-10T09:59:00.827Z,4.50
2019-01-10T10:01:30.045Z,4.30
2019-01-10T10:03:59.303Z,4.77
2019-01-10T10:06:28.830Z,4.73
2019-01-10T10:08:58.078Z,4.13
2019-01-10T10:11:33.962Z,4.97
2019-01-10T10:14:01.351Z,5.10
2019-01-10T10:16:30.931Z,4.20
2019-01-10T10:19:01.292Z,5.27
2019-01-10T10:21:30.907Z,4.37
2019-01-10T10:24:00.192Z,4.80
2019-01-10T10:26:29.760Z,5.90
2019-01-10T10:28:59.071Z,7.33
2019-01-10T10:31:28.278Z,6.23
2019-01-10T10:33:57.506Z,4.37
2019-01-10T10:36:26.804Z,5.30
2019-01-10T10:38:56.061Z,3.77
2019-01-10T10:41:25.335Z,4.00
2019-01-10T10:43:54.562Z,3.87
2019-01-10T10:46:23.805Z,3.97
2019-01-10T10:48:53.503Z,4.53
2019-01-10T10:51:23.981Z,4.07
2019-01-10T10:53:53.574Z,4.00
2019-01-10T10:56:22.842Z,4.10
2019-01-10T10:58:52.073Z,4.03
2019-01-10T11:01:21.954Z,4.33
2019-01-10T11:03:51.476Z,3.70
2019-01-10T11:06:21.592Z,4.10
2019-01-10T11:08:52.404Z,3.67
2019-01-10T11:11:23.043Z,4.13
2019-01-10T11:13:52.287Z,4.10
2019-01-10T11:16:21.554Z,3.97
2019-01-10T11:19:03.373Z,4.60
2019-01-10T11:21:48.726Z,4.03
2019-01-10T11:24:24.035Z,5.03
2019-01-10T11:26:55.982Z,3.83
2019-01-10T11:29:28.960Z,3.43
2019-01-10T11:32:13.086Z,3.13
2019-01-10T11:35:05.452Z,3.10
2019-01-10T11:37:36.063Z,3.30
2019-01-10T11:40:32.297Z,2.87
2019-01-10T11:43:03.212Z,3.10
2019-01-10T11:45:52.467Z,3.10
2019-01-10T11:48:46.176Z,2.77
2019-01-10T11:51:22.861Z,3.07
2019-01-10T11:54:12.103Z,2.90
2019-01-10T11:56:48.892Z,3.13
2019-01-10T11:59:20.250Z,3.70
2019-01-10T12:01:55.715Z,3.60
2019-01-10T12:04:31.803Z,3.77
2019-01-10T12:07:04.793Z,3.90
2019-01-10T12:10:06.692Z,4.13
2019-01-10T12:12:38.579Z,4.57
2019-01-10T12:15:08.367Z,4.10
2019-01-10T12:17:41.790Z,4.30
2019-01-10T12:20:14.780Z,4.57
2019-01-10T12:22:44.858Z,4.90
2019-01-10T12:25:16.015Z,3.37
2019-01-10T12:27:45.905Z,3.50
2019-01-10T12:30:21.292Z,3.10
2019-01-10T12:32:52.330Z,3.00
2019-01-10T12:35:23.072Z,4.40
2019-01-10T12:37:55.572Z,4.00
2019-01-10T12:40:25.131Z,3.17
2019-01-10T12:42:54.834Z,3.30
2019-01-10T12:45:25.412Z,3.30
2019-01-10T12:47:55.963Z,3.17
2019-01-10T12:50:29.722Z,3.70
2019-01-10T12:52:59.252Z,3.40
2019-01-10T12:55:28.874Z,3.63
2019-01-10T12:58:00.176Z,3.30
2019-01-10T13:00:31.245Z,3.30
2019-01-10T13:03:00.782Z,3.10
2019-01-10T13:05:31.515Z,3.13
2019-01-10T13:08:03.938Z,3.37
2019-01-10T13:10:32.297Z,3.30
2019-01-10T13:13:02.985Z,2.83
2019-01-10T13:15:35.091Z,3.43
2019-01-10T13:18:06.560Z,3.20
2019-01-10T13:20:36.188Z,3.10
2019-01-10T13:23:06.239Z,3.27
2019-01-10T13:25:37.925Z,4.00
2019-01-10T13:28:07.163Z,3.57
2019-01-10T13:30:36.411Z,3.30
2019-01-10T13:33:10.883Z,2.77
2019-01-10T13:35:40.170Z,2.70
2019-01-10T13:38:09.797Z,3.10
2019-01-10T13:41:01.932Z,2.83
2019-01-10T13:43:41.215Z,2.70
2019-01-10T13:46:25.668Z,3.13
2019-01-10T13:48:56.859Z,2.70
2019-01-10T13:51:34.653Z,3.17
2019-01-10T13:54:10.768Z,2.87
2019-01-10T13:56:43.910Z,3.67
2019-01-10T13:59:29.115Z,2.50
2019-01-10T14:02:14.951Z,2.50
2019-01-10T14:04:53.143Z,2.20
2019-01-10T14:07:26.208Z,2.87
2019-01-10T14:10:01.077Z,2.73
2019-01-10T14:13:05.487Z,2.63
2019-01-10T14:15:38.179Z,2.50
2019-01-10T14:18:13.536Z,3.43
2019-01-10T14:20:58.475Z,3.20
2019-01-10T14:23:32.718Z,3.87
2019-01-10T14:26:03.728Z,3.70
2019-01-10T14:28:37.880Z,3.40
2019-01-10T14:31:12.058Z,2.60
2019-01-10T14:33:45.875Z,3.27
2019-01-10T14:36:19.040Z,5.27
2019-01-10T14:39:03.357Z,9.53
2019-01-10T14:41:48.477Z,4.83
2019-01-10T14:44:25.062Z,6.33
2019-01-10T14:47:19.856Z,5.27
2019-01-10T14:49:50.284Z,5.43
2019-01-10T14:52:20.502Z,6.47
2019-01-10T14:54:50.537Z,6.00
2019-01-10T14:57:22.301Z,5.00
2019-01-10T14:59:51.547Z,2.40
2019-01-10T15:02:20.767Z,2.50
2019-01-10T15:05:09.783Z,2.70
2019-01-10T15:07:45.915Z,6.33
2019-01-10T15:10:18.765Z,4.30
2019-01-10T15:13:12.788Z,3.90
2019-01-10T15:16:03.698Z,4.43
2019-01-10T15:18:34.201Z,2.87
2019-01-10T15:21:05.503Z,2.67
2019-01-10T15:23:38.549Z,2.27
2019-01-10T15:26:14.386Z,2.50
2019-01-10T15:28:47.515Z,2.63
2019-01-10T15:31:22.322Z,2.53
2019-01-10T15:33:58.278Z,2.63
2019-01-10T15:36:27.710Z,2.93
2019-01-10T15:38:57.282Z,2.50
2019-01-10T15:41:30.539Z,2.63
2019-01-10T15:44:03.215Z,2.63
2019-01-10T15:46:35.573Z,2.70
2019-01-10T15:49:08.793Z,2.80
2019-01-10T15:51:45.883Z,5.40
2019-01-10T15:54:16.534Z,3.83
2019-01-10T15:56:48.992Z,6.27
2019-01-10T15:59:36.713Z,4.53
2019-01-10T16:02:12.738Z,6.33
2019-01-10T16:04:42.137Z,5.20
2019-01-10T16:07:16.987Z,3.00
2019-01-10T16:09:48.270Z,3.83
2019-01-10T16:12:18.703Z,2.73
2019-01-10T16:14:48.814Z,3.60
2019-01-10T16:17:18.801Z,19.20
2019-01-10T16:19:52.913Z,16.47
2019-01-10T16:22:22.617Z,16.70
2019-01-10T16:24:52.825Z,10.43
2019-01-10T16:27:24.165Z,8.30
2019-01-10T16:29:53.711Z,8.27
2019-01-10T16:32:26.124Z,5.57
2019-01-10T16:34:58.590Z,7.10
2019-01-10T16:37:31.781Z,5.57
2019-01-10T16:40:01.577Z,8.17
2019-01-10T16:42:36.980Z,8.40
2019-01-10T16:45:10.825Z,7.30
2019-01-10T16:47:42.846Z,7.63
2019-01-10T16:50:13.732Z,8.77
2019-01-10T16:52:43.998Z,5.67
2019-01-10T16:55:22.211Z,5.80
2019-01-10T16:57:51.699Z,5.07
2019-01-10T17:00:31.912Z,7.20
2019-01-10T17:03:01.907Z,6.30
2019-01-10T17:05:55.801Z,6.60
2019-01-10T17:08:27.808Z,6.20
2019-01-10T17:10:59.102Z,14.97
2019-01-10T17:13:30.925Z,11.20
2019-01-10T17:16:00.838Z,7.73
2019-01-10T17:18:30.354Z,6.17
2019-01-10T17:21:00.382Z,9.23
2019-01-10T17:23:30.457Z,7.00
2019-01-10T17:26:00.633Z,9.93
2019-01-10T17:28:29.894Z,7.87
2019-01-10T17:30:59.161Z,8.27
2019-01-10T17:33:34.866Z,11.13
2019-01-10T17:36:08.594Z,7.70
2019-01-10T17:38:38.976Z,7.67
2019-01-10T17:41:13.858Z,9.17
2019-01-10T17:43:45.575Z,9.90
2019-01-10T17:46:16.813Z,6.73
2019-01-10T17:48:48.389Z,6.23
2019-01-10T17:51:35.831Z,6.73
2019-01-10T17:54:05.482Z,5.37
2019-01-10T17:56:46.997Z,4.80
2019-01-10T17:59:20.646Z,4.50
2019-01-10T18:01:50.201Z,4.40
2019-01-10T18:04:19.744Z,5.03
2019-01-10T18:06:49.116Z,5.77
2019-01-10T18:09:18.644Z,11.30
2019-01-10T18:11:58.031Z,7.77
2019-01-10T18:14:28.521Z,8.90
2019-01-10T18:17:02.070Z,7.80
2019-01-10T18:19:53.924Z,9.27
2019-01-10T18:22:34.269Z,9.27
2019-01-10T18:25:06.215Z,6.30
2019-01-10T18:27:39.489Z,6.20
2019-01-10T18:30:15.342Z,4.63
2019-01-10T18:32:46.405Z,8.87
2019-01-10T18:35:18.119Z,9.77
2019-01-10T18:37:47.695Z,8.97
2019-01-10T18:40:46.975Z,11.53
2019-01-10T18:43:19.144Z,10.80
2019-01-10T18:45:51.561Z,6.23
2019-01-10T18:48:23.166Z,4.50
2019-01-10T18:50:53.103Z,8.70
2019-01-10T18:53:35.870Z,8.20
2019-01-10T18:56:07.069Z,11.50
2019-01-10T18:58:36.332Z,8.07
2019-01-10T19:01:05.977Z,9.30
2019-01-10T19:03:35.254Z,8.00
2019-01-10T19:06:06.033Z,7.87
2019-01-10T19:08:36.042Z,7.33
2019-01-10T19:11:07.854Z,5.20
2019-01-10T19:13:37.103Z,6.73
2019-01-10T19:16:10.193Z,4.60
2019-01-10T19:18:42.128Z,4.33
2019-01-10T19:21:13.500Z,4.80
2019-01-10T19:23:45.271Z,5.43
2019-01-10T19:26:19.566Z,6.40
2019-01-10T19:28:52.747Z,6.67
2019-01-10T19:31:30.645Z,7.47
2019-01-10T19:34:27.929Z,8.67
2019-01-10T19:36:59.747Z,9.70
2019-01-10T19:39:33.819Z,11.17
2019-01-10T19:42:12.701Z,8.37
2019-01-10T19:45:03.946Z,8.03
2019-01-10T19:47:35.071Z,7.70
2019-01-10T19:50:07.663Z,6.87
2019-01-10T19:52:39.772Z,7.53
2019-01-10T19:55:15.562Z,6.80
2019-01-10T19:57:49.870Z,6.97
2019-01-10T20:00:23.949Z,7.63
2019-01-10T20:02:54.917Z,14.33
2019-01-10T20:05:24.472Z,7.93
2019-01-10T20:07:54.086Z,7.77
2019-01-10T20:10:30.299Z,8.30
2019-01-10T20:13:06.188Z,7.93
2019-01-10T20:15:38.687Z,8.07
2019-01-10T20:18:09.305Z,7.53
2019-01-10T20:20:43.834Z,8.60
2019-01-10T20:23:27.458Z,10.00
2019-01-10T20:26:06.121Z,9.43
2019-01-10T20:28:48.487Z,8.60
2019-01-10T20:31:21.836Z,7.47
2019-01-10T20:33:53.016Z,9.07
2019-01-10T20:36:32.244Z,9.83
2019-01-10T20:39:13.683Z,10.43
2019-01-10T20:41:43.015Z,9.03
2019-01-10T20:44:12.554Z,7.77
2019-01-10T20:46:41.794Z,7.50
2019-01-10T20:49:11.326Z,6.03
2019-01-10T20:51:43.685Z,9.93
2019-01-10T20:54:15.437Z,10.30
2019-01-10T20:56:50.990Z,60.93
2019-01-10T20:59:24.970Z,24.57
2019-01-10T21:01:56.623Z,41.80
2019-01-10T21:04:32.260Z,18.60
2019-01-10T21:07:01.996Z,8.73
2019-01-10T21:09:32.096Z,7.40
2019-01-10T21:12:01.957Z,5.77
2019-01-10T21:14:34.553Z,7.00
2019-01-10T21:17:04.560Z,5.70
2019-01-10T21:19:34.773Z,6.00
2019-01-10T21:22:04.031Z,6.20
2019-01-10T21:24:36.783Z,5.63
2019-01-10T21:27:33.278Z,5.60
2019-01-10T21:30:04.023Z,7.10
2019-01-10T21:32:58.250Z,5.80
2019-01-10T21:36:08.387Z,8.07
2019-01-10T21:38:42.327Z,9.87
2019-01-10T21:41:28.845Z,8.70
2019-01-10T21:44:06.246Z,13.83
2019-01-10T21:50:07.342Z,10.23
2019-01-10T21:52:40.982Z,9.27
2019-01-10T21:55:35.186Z,7.80
2019-01-10T21:58:08.833Z,8.87
2019-01-10T22:00:38.650Z,9.93
2019-01-10T22:03:13.682Z,10.97
2019-01-10T22:05:50.950Z,9.73
2019-01-10T22:08:20.694Z,8.13
2019-01-10T22:10:53.557Z,7.23
2019-01-10T22:13:25.915Z,6.70
2019-01-10T22:15:59.873Z,7.40
2019-01-10T22:18:32.609Z,7.23
2019-01-10T22:21:05.673Z,6.03
2019-01-10T22:23:40.903Z,6.40
2019-01-10T22:26:21.682Z,6.93
2019-01-10T22:28:53.068Z,6.57
2019-01-10T22:31:25.098Z,6.80
2019-01-10T22:33:59.499Z,6.30
2019-01-10T22:36:30.891Z,6.07
2019-01-10T22:39:05.320Z,6.40
2019-01-10T22:41:54.086Z,9.97
2019-01-10T22:44:25.839Z,12.53
2019-01-10T22:46:58.669Z,10.33
2019-01-10T22:49:29.804Z,8.73
2019-01-10T22:52:01.068Z,6.67
2019-01-10T22:54:33.565Z,6.60
2019-01-10T22:57:04.912Z,5.77
2019-01-10T22:59:34.239Z,6.23
2019-01-10T23:02:03.750Z,6.47
2019-01-10T23:04:39.779Z,6.50
2019-01-10T23:07:25.046Z,6.10
2019-01-10T23:10:04.794Z,5.07
2019-01-10T23:12:37.384Z,5.50
2019-01-10T23:15:31.351Z,6.10
2019-01-10T23:18:02.257Z,6.10
2019-01-10T23:20:36.464Z,6.57
2019-01-10T23:23:08.022Z,6.87
2019-01-10T23:25:40.834Z,6.30
2019-01-10T23:28:10.160Z,6.57
2019-01-10T23:30:58.787Z,6.20
2019-01-10T23:33:29.646Z,6.70
2019-01-10T23:36:05.877Z,7.60
2019-01-10T23:38:36.413Z,7.40
2019-01-10T23:41:08.914Z,8.43
2019-01-10T23:43:48.297Z,8.10
2019-01-10T23:46:33.187Z,7.10
2019-01-10T23:49:14.737Z,7.10
2019-01-10T23:51:56.419Z,7.33
2019-01-10T23:54:37.567Z,6.47
2019-01-10T23:57:07.713Z,7.03
2019-01-10T23:59:40.665Z,6.90
